O74 weather

Elliotts Landing Airport
Mount Victory, Ohio, United States

Public forecast

Using degrees Fahrenheit for public forecast. Weather courtesy of forecast.io.

METAR (pilot weather report)

Closest report is Bellefontaine Regional Airport, 16.8 nm (31.0 km) WSW. Retrieved 2019/05/22 11:00 UTC (10 seconds ago):

KEDJ 221100Z AUTO 14011G18KT 10SM CLR 13/06 A3000 RMK AO1

TAF (pilot weather forecast)

Closest forecast is Findlay Airport, 30.2 nm (55.9 km) NNW. Retrieved 2019/05/22 06:42 UTC (4 hours ago):

TAF KFDY 220540Z 2206/2306 09012KT P6SM BKN060 OVC100 FM221200 12012KT P6SM SCT050 OVC100 TEMPO 2212/2214 -SHRA OVC050 FM221500 16011KT P6SM VCSH BKN060 FM221900 19013G22KT P6SM BKN070 FM230200 20006KT P6SM SCT130